sensor_id;sensor_type;location;lat;lon;timestamp;P1;durP1;ratioP1;P2;durP2;ratioP2
22191;SDS011;11261;52.456;10.850;2023-04-28T00:01:10;3.00;;;1.83;;
22191;SDS011;11261;52.456;10.850;2023-04-28T00:03:40;6.80;;;2.80;;
22191;SDS011;11261;52.456;10.850;2023-04-28T00:06:09;5.05;;;2.30;;
22191;SDS011;11261;52.456;10.850;2023-04-28T00:08:37;5.80;;;2.00;;
22191;SDS011;11261;52.456;10.850;2023-04-28T00:11:08;5.13;;;2.50;;
22191;SDS011;11261;52.456;10.850;2023-04-28T00:13:37;3.42;;;1.80;;
22191;SDS011;11261;52.456;10.850;2023-04-28T00:16:05;4.13;;;1.98;;
22191;SDS011;11261;52.456;10.850;2023-04-28T00:18:35;5.47;;;2.00;;
22191;SDS011;11261;52.456;10.850;2023-04-28T00:21:03;2.20;;;1.70;;
22191;SDS011;11261;52.456;10.850;2023-04-28T00:23:32;4.18;;;1.65;;
22191;SDS011;11261;52.456;10.850;2023-04-28T00:26:00;3.90;;;2.00;;
22191;SDS011;11261;52.456;10.850;2023-04-28T00:28:29;2.30;;;1.70;;
22191;SDS011;11261;52.456;10.850;2023-04-28T00:31:00;5.13;;;2.00;;
22191;SDS011;11261;52.456;10.850;2023-04-28T00:33:28;3.22;;;1.80;;
22191;SDS011;11261;52.456;10.850;2023-04-28T00:36:01;3.28;;;1.83;;
22191;SDS011;11261;52.456;10.850;2023-04-28T00:38:29;2.28;;;1.77;;
22191;SDS011;11261;52.456;10.850;2023-04-28T00:40:57;2.45;;;1.63;;
22191;SDS011;11261;52.456;10.850;2023-04-28T00:43:26;2.80;;;1.83;;
22191;SDS011;11261;52.456;10.850;2023-04-28T00:45:54;3.72;;;1.58;;
22191;SDS011;11261;52.456;10.850;2023-04-28T00:48:22;3.70;;;1.70;;
22191;SDS011;11261;52.456;10.850;2023-04-28T00:50:51;3.08;;;1.58;;
22191;SDS011;11261;52.456;10.850;2023-04-28T00:53:20;3.08;;;1.80;;
22191;SDS011;11261;52.456;10.850;2023-04-28T00:55:49;3.47;;;1.48;;
22191;SDS011;11261;52.456;10.850;2023-04-28T00:58:19;3.08;;;1.50;;
22191;SDS011;11261;52.456;10.850;2023-04-28T01:00:47;3.17;;;1.52;;
22191;SDS011;11261;52.456;10.850;2023-04-28T01:03:15;2.85;;;1.65;;
22191;SDS011;11261;52.456;10.850;2023-04-28T01:05:44;3.33;;;2.10;;
22191;SDS011;11261;52.456;10.850;2023-04-28T01:08:13;2.10;;;1.50;;
22191;SDS011;11261;52.456;10.850;2023-04-28T01:10:43;5.40;;;1.83;;
22191;SDS011;11261;52.456;10.850;2023-04-28T01:13:12;2.55;;;1.60;;
22191;SDS011;11261;52.456;10.850;2023-04-28T01:15:40;1.88;;;1.35;;
22191;SDS011;11261;52.456;10.850;2023-04-28T01:18:08;2.22;;;1.70;;
22191;SDS011;11261;52.456;10.850;2023-04-28T01:20:37;2.97;;;1.67;;
22191;SDS011;11261;52.456;10.850;2023-04-28T01:23:07;3.78;;;1.65;;
22191;SDS011;11261;52.456;10.850;2023-04-28T01:25:40;2.28;;;1.65;;
22191;SDS011;11261;52.456;10.850;2023-04-28T01:28:09;2.33;;;1.60;;
22191;SDS011;11261;52.456;10.850;2023-04-28T01:30:38;3.63;;;1.63;;
22191;SDS011;11261;52.456;10.850;2023-04-28T01:33:06;3.30;;;1.70;;
22191;SDS011;11261;52.456;10.850;2023-04-28T01:35:34;3.08;;;1.40;;
22191;SDS011;11261;52.456;10.850;2023-04-28T01:38:02;2.45;;;1.77;;
22191;SDS011;11261;52.456;10.850;2023-04-28T01:40:31;4.50;;;1.80;;
22191;SDS011;11261;52.456;10.850;2023-04-28T01:43:00;4.03;;;1.67;;
22191;SDS011;11261;52.456;10.850;2023-04-28T01:45:28;2.65;;;1.70;;
22191;SDS011;11261;52.456;10.850;2023-04-28T01:47:56;7.72;;;1.60;;
22191;SDS011;11261;52.456;10.850;2023-04-28T01:50:25;2.10;;;1.65;;
22191;SDS011;11261;52.456;10.850;2023-04-28T01:52:53;4.15;;;1.70;;
22191;SDS011;11261;52.456;10.850;2023-04-28T01:55:21;3.60;;;1.58;;
22191;SDS011;11261;52.456;10.850;2023-04-28T01:57:50;2.60;;;1.50;;
22191;SDS011;11261;52.456;10.850;2023-04-28T02:00:20;2.92;;;1.65;;
22191;SDS011;11261;52.456;10.850;2023-04-28T02:02:48;3.92;;;1.60;;
22191;SDS011;11261;52.456;10.850;2023-04-28T02:05:17;2.20;;;1.48;;
22191;SDS011;11261;52.456;10.850;2023-04-28T02:07:45;2.38;;;1.65;;
22191;SDS011;11261;52.456;10.850;2023-04-28T02:10:13;5.30;;;1.70;;
22191;SDS011;11261;52.456;10.850;2023-04-28T02:12:41;3.45;;;1.38;;
22191;SDS011;11261;52.456;10.850;2023-04-28T02:15:09;2.70;;;1.60;;
22191;SDS011;11261;52.456;10.850;2023-04-28T02:17:39;4.47;;;2.10;;
22191;SDS011;11261;52.456;10.850;2023-04-28T02:20:08;2.03;;;1.83;;
22191;SDS011;11261;52.456;10.850;2023-04-28T02:22:37;5.32;;;1.83;;
22191;SDS011;11261;52.456;10.850;2023-04-28T02:25:05;3.70;;;1.65;;
22191;SDS011;11261;52.456;10.850;2023-04-28T02:27:34;2.70;;;1.60;;
22191;SDS011;11261;52.456;10.850;2023-04-28T02:30:04;3.28;;;1.73;;
22191;SDS011;11261;52.456;10.850;2023-04-28T02:32:34;6.25;;;2.05;;
22191;SDS011;11261;52.456;10.850;2023-04-28T02:35:04;3.65;;;1.80;;
22191;SDS011;11261;52.456;10.850;2023-04-28T02:37:33;4.20;;;2.17;;
22191;SDS011;11261;52.456;10.850;2023-04-28T02:40:01;4.50;;;1.92;;
22191;SDS011;11261;52.456;10.850;2023-04-28T02:42:30;3.13;;;1.90;;
22191;SDS011;11261;52.456;10.850;2023-04-28T02:44:58;5.00;;;1.98;;
22191;SDS011;11261;52.456;10.850;2023-04-28T02:47:26;3.92;;;1.90;;
22191;SDS011;11261;52.456;10.850;2023-04-28T02:49:54;4.45;;;1.90;;
22191;SDS011;11261;52.456;10.850;2023-04-28T02:52:24;5.72;;;2.08;;
22191;SDS011;11261;52.456;10.850;2023-04-28T02:54:52;4.03;;;1.80;;
22191;SDS011;11261;52.456;10.850;2023-04-28T02:57:22;3.00;;;1.90;;
22191;SDS011;11261;52.456;10.850;2023-04-28T02:59:51;2.47;;;1.80;;
22191;SDS011;11261;52.456;10.850;2023-04-28T03:02:19;2.97;;;1.85;;
22191;SDS011;11261;52.456;10.850;2023-04-28T03:04:48;3.83;;;1.80;;
22191;SDS011;11261;52.456;10.850;2023-04-28T03:07:17;2.95;;;1.65;;
22191;SDS011;11261;52.456;10.850;2023-04-28T03:09:47;3.40;;;1.67;;
22191;SDS011;11261;52.456;10.850;2023-04-28T03:12:15;4.22;;;2.13;;
22191;SDS011;11261;52.456;10.850;2023-04-28T03:14:43;4.93;;;1.95;;
22191;SDS011;11261;52.456;10.850;2023-04-28T03:17:11;4.57;;;2.17;;
22191;SDS011;11261;52.456;10.850;2023-04-28T03:19:40;4.82;;;2.35;;
22191;SDS011;11261;52.456;10.850;2023-04-28T03:22:09;4.57;;;2.10;;
22191;SDS011;11261;52.456;10.850;2023-04-28T03:24:37;4.03;;;1.95;;
22191;SDS011;11261;52.456;10.850;2023-04-28T03:27:06;5.82;;;1.75;;
22191;SDS011;11261;52.456;10.850;2023-04-28T03:29:35;5.75;;;1.75;;
22191;SDS011;11261;52.456;10.850;2023-04-28T03:32:03;2.47;;;1.80;;
22191;SDS011;11261;52.456;10.850;2023-04-28T03:34:33;5.05;;;2.10;;
22191;SDS011;11261;52.456;10.850;2023-04-28T03:37:01;2.78;;;1.80;;
22191;SDS011;11261;52.456;10.850;2023-04-28T03:39:29;4.57;;;1.67;;
22191;SDS011;11261;52.456;10.850;2023-04-28T03:41:58;4.35;;;1.90;;
22191;SDS011;11261;52.456;10.850;2023-04-28T03:44:27;5.13;;;1.77;;
22191;SDS011;11261;52.456;10.850;2023-04-28T03:46:55;3.15;;;2.00;;
22191;SDS011;11261;52.456;10.850;2023-04-28T03:49:24;5.75;;;2.28;;
22191;SDS011;11261;52.456;10.850;2023-04-28T03:51:52;3.97;;;2.13;;
22191;SDS011;11261;52.456;10.850;2023-04-28T03:54:20;4.68;;;2.10;;
22191;SDS011;11261;52.456;10.850;2023-04-28T03:56:48;3.33;;;1.98;;
22191;SDS011;11261;52.456;10.850;2023-04-28T03:59:17;6.70;;;3.03;;
22191;SDS011;11261;52.456;10.850;2023-04-28T04:01:47;12.00;;;2.45;;
22191;SDS011;11261;52.456;10.850;2023-04-28T04:04:15;4.32;;;2.03;;
22191;SDS011;11261;52.456;10.850;2023-04-28T04:06:44;5.82;;;1.90;;
22191;SDS011;11261;52.456;10.850;2023-04-28T04:09:12;4.55;;;2.20;;
22191;SDS011;11261;52.456;10.850;2023-04-28T04:11:40;3.53;;;2.13;;
22191;SDS011;11261;52.456;10.850;2023-04-28T04:14:09;4.10;;;2.30;;
22191;SDS011;11261;52.456;10.850;2023-04-28T04:16:37;3.95;;;2.28;;
22191;SDS011;11261;52.456;10.850;2023-04-28T04:19:07;5.63;;;1.83;;
22191;SDS011;11261;52.456;10.850;2023-04-28T04:21:36;4.60;;;2.03;;
22191;SDS011;11261;52.456;10.850;2023-04-28T04:24:04;4.10;;;2.28;;
22191;SDS011;11261;52.456;10.850;2023-04-28T04:26:33;3.40;;;2.08;;
22191;SDS011;11261;52.456;10.850;2023-04-28T04:29:01;4.15;;;2.30;;
22191;SDS011;11261;52.456;10.850;2023-04-28T04:31:30;4.75;;;2.30;;
22191;SDS011;11261;52.456;10.850;2023-04-28T04:33:58;3.58;;;2.17;;
22191;SDS011;11261;52.456;10.850;2023-04-28T04:36:27;4.13;;;2.00;;
22191;SDS011;11261;52.456;10.850;2023-04-28T04:38:58;12.88;;;2.42;;
22191;SDS011;11261;52.456;10.850;2023-04-28T04:41:26;3.20;;;2.17;;
22191;SDS011;11261;52.456;10.850;2023-04-28T04:43:55;3.03;;;2.03;;
22191;SDS011;11261;52.456;10.850;2023-04-28T04:46:23;3.33;;;1.92;;
22191;SDS011;11261;52.456;10.850;2023-04-28T04:48:51;6.55;;;2.45;;
22191;SDS011;11261;52.456;10.850;2023-04-28T04:51:19;3.70;;;1.98;;
22191;SDS011;11261;52.456;10.850;2023-04-28T04:53:49;2.95;;;2.00;;
22191;SDS011;11261;52.456;10.850;2023-04-28T04:56:17;3.10;;;2.10;;
22191;SDS011;11261;52.456;10.850;2023-04-28T04:58:45;5.32;;;2.58;;
22191;SDS011;11261;52.456;10.850;2023-04-28T05:01:14;4.65;;;2.28;;
22191;SDS011;11261;52.456;10.850;2023-04-28T05:03:42;4.00;;;2.47;;
22191;SDS011;11261;52.456;10.850;2023-04-28T05:06:11;3.92;;;2.20;;
22191;SDS011;11261;52.456;10.850;2023-04-28T05:08:39;7.80;;;2.88;;
22191;SDS011;11261;52.456;10.850;2023-04-28T05:11:08;5.07;;;2.83;;
22191;SDS011;11261;52.456;10.850;2023-04-28T05:13:37;4.53;;;2.38;;
22191;SDS011;11261;52.456;10.850;2023-04-28T05:16:06;3.00;;;2.33;;
22191;SDS011;11261;52.456;10.850;2023-04-28T05:18:34;4.90;;;2.33;;
22191;SDS011;11261;52.456;10.850;2023-04-28T05:21:02;6.80;;;2.58;;
22191;SDS011;11261;52.456;10.850;2023-04-28T05:23:30;5.30;;;2.40;;
22191;SDS011;11261;52.456;10.850;2023-04-28T05:25:59;5.05;;;2.35;;
22191;SDS011;11261;52.456;10.850;2023-04-28T05:28:30;4.55;;;2.58;;
22191;SDS011;11261;52.456;10.850;2023-04-28T05:30:58;6.18;;;2.45;;
22191;SDS011;11261;52.456;10.850;2023-04-28T05:33:26;4.55;;;2.38;;
22191;SDS011;11261;52.456;10.850;2023-04-28T05:35:54;5.55;;;2.50;;
22191;SDS011;11261;52.456;10.850;2023-04-28T05:38:23;5.80;;;2.60;;
22191;SDS011;11261;52.456;10.850;2023-04-28T05:40:51;2.92;;;2.17;;
22191;SDS011;11261;52.456;10.850;2023-04-28T05:43:19;5.47;;;2.80;;
22191;SDS011;11261;52.456;10.850;2023-04-28T05:45:49;5.05;;;2.47;;
22191;SDS011;11261;52.456;10.850;2023-04-28T05:48:17;3.53;;;2.33;;
22191;SDS011;11261;52.456;10.850;2023-04-28T05:50:46;6.32;;;2.45;;
22191;SDS011;11261;52.456;10.850;2023-04-28T05:53:14;6.45;;;2.53;;
22191;SDS011;11261;52.456;10.850;2023-04-28T05:55:42;4.13;;;2.45;;
22191;SDS011;11261;52.456;10.850;2023-04-28T05:58:11;6.20;;;2.47;;
22191;SDS011;11261;52.456;10.850;2023-04-28T06:00:39;4.43;;;2.78;;
22191;SDS011;11261;52.456;10.850;2023-04-28T06:03:09;4.93;;;2.63;;
22191;SDS011;11261;52.456;10.850;2023-04-28T06:05:39;5.53;;;2.65;;
22191;SDS011;11261;52.456;10.850;2023-04-28T06:08:08;9.50;;;3.03;;
22191;SDS011;11261;52.456;10.850;2023-04-28T06:10:37;4.88;;;2.97;;
22191;SDS011;11261;52.456;10.850;2023-04-28T06:13:05;5.15;;;2.85;;
22191;SDS011;11261;52.456;10.850;2023-04-28T06:15:34;3.45;;;2.70;;
22191;SDS011;11261;52.456;10.850;2023-04-28T06:18:03;5.55;;;3.00;;
22191;SDS011;11261;52.456;10.850;2023-04-28T06:20:34;5.95;;;2.63;;
22191;SDS011;11261;52.456;10.850;2023-04-28T06:23:02;4.88;;;2.78;;
22191;SDS011;11261;52.456;10.850;2023-04-28T06:25:30;9.13;;;3.08;;
22191;SDS011;11261;52.456;10.850;2023-04-28T06:27:58;5.60;;;2.95;;
22191;SDS011;11261;52.456;10.850;2023-04-28T06:30:26;8.18;;;3.58;;
22191;SDS011;11261;52.456;10.850;2023-04-28T06:32:55;4.53;;;2.97;;
22191;SDS011;11261;52.456;10.850;2023-04-28T06:35:24;4.90;;;2.80;;
22191;SDS011;11261;52.456;10.850;2023-04-28T06:37:53;7.15;;;2.75;;
22191;SDS011;11261;52.456;10.850;2023-04-28T06:40:22;4.50;;;2.78;;
22191;SDS011;11261;52.456;10.850;2023-04-28T06:42:51;5.32;;;3.20;;
22191;SDS011;11261;52.456;10.850;2023-04-28T06:45:19;4.90;;;3.47;;
22191;SDS011;11261;52.456;10.850;2023-04-28T06:47:47;9.35;;;3.28;;
22191;SDS011;11261;52.456;10.850;2023-04-28T06:50:16;4.68;;;3.50;;
22191;SDS011;11261;52.456;10.850;2023-04-28T06:52:45;9.20;;;3.60;;
22191;SDS011;11261;52.456;10.850;2023-04-28T06:55:14;6.82;;;3.90;;
22191;SDS011;11261;52.456;10.850;2023-04-28T06:57:43;6.53;;;3.17;;
22191;SDS011;11261;52.456;10.850;2023-04-28T07:00:12;6.50;;;3.65;;
22191;SDS011;11261;52.456;10.850;2023-04-28T07:02:41;7.82;;;3.72;;
22191;SDS011;11261;52.456;10.850;2023-04-28T07:05:09;6.53;;;3.70;;
22191;SDS011;11261;52.456;10.850;2023-04-28T07:07:41;5.38;;;3.53;;
22191;SDS011;11261;52.456;10.850;2023-04-28T07:10:09;10.45;;;4.28;;
22191;SDS011;11261;52.456;10.850;2023-04-28T07:12:40;7.10;;;3.58;;
22191;SDS011;11261;52.456;10.850;2023-04-28T07:15:08;11.13;;;4.32;;
22191;SDS011;11261;52.456;10.850;2023-04-28T07:17:37;8.40;;;3.90;;
22191;SDS011;11261;52.456;10.850;2023-04-28T07:20:05;5.55;;;3.72;;
22191;SDS011;11261;52.456;10.850;2023-04-28T07:22:34;7.93;;;3.85;;
22191;SDS011;11261;52.456;10.850;2023-04-28T07:25:04;8.50;;;4.88;;
22191;SDS011;11261;52.456;10.850;2023-04-28T07:27:32;7.07;;;4.35;;
22191;SDS011;11261;52.456;10.850;2023-04-28T07:30:02;6.82;;;4.50;;
22191;SDS011;11261;52.456;10.850;2023-04-28T07:32:51;8.43;;;4.20;;
22191;SDS011;11261;52.456;10.850;2023-04-28T07:35:19;8.55;;;5.05;;
22191;SDS011;11261;52.456;10.850;2023-04-28T07:37:47;8.73;;;4.75;;
22191;SDS011;11261;52.456;10.850;2023-04-28T07:40:15;7.80;;;5.00;;
22191;SDS011;11261;52.456;10.850;2023-04-28T07:42:44;4.72;;;3.92;;
22191;SDS011;11261;52.456;10.850;2023-04-28T07:45:15;7.00;;;4.60;;
22191;SDS011;11261;52.456;10.850;2023-04-28T07:47:43;6.57;;;4.20;;
22191;SDS011;11261;52.456;10.850;2023-04-28T07:50:11;8.88;;;5.30;;
22191;SDS011;11261;52.456;10.850;2023-04-28T07:52:39;11.70;;;6.45;;
22191;SDS011;11261;52.456;10.850;2023-04-28T07:55:08;10.48;;;6.15;;
22191;SDS011;11261;52.456;10.850;2023-04-28T07:57:36;10.35;;;5.82;;
22191;SDS011;11261;52.456;10.850;2023-04-28T08:00:07;8.05;;;5.00;;
22191;SDS011;11261;52.456;10.850;2023-04-28T08:02:38;7.97;;;5.30;;
22191;SDS011;11261;52.456;10.850;2023-04-28T08:05:07;11.00;;;5.50;;
22191;SDS011;11261;52.456;10.850;2023-04-28T08:07:36;7.78;;;4.93;;
22191;SDS011;11261;52.456;10.850;2023-04-28T08:10:05;8.43;;;5.20;;
22191;SDS011;11261;52.456;10.850;2023-04-28T08:12:34;10.25;;;5.25;;
22191;SDS011;11261;52.456;10.850;2023-04-28T08:15:02;9.60;;;5.63;;
22191;SDS011;11261;52.456;10.850;2023-04-28T08:17:31;7.60;;;4.57;;
22191;SDS011;11261;52.456;10.850;2023-04-28T08:20:01;8.48;;;5.03;;
22191;SDS011;11261;52.456;10.850;2023-04-28T08:22:31;10.30;;;5.38;;
22191;SDS011;11261;52.456;10.850;2023-04-28T08:25:00;5.80;;;4.38;;
22191;SDS011;11261;52.456;10.850;2023-04-28T08:27:29;10.68;;;6.13;;
22191;SDS011;11261;52.456;10.850;2023-04-28T08:29:59;8.55;;;4.38;;
22191;SDS011;11261;52.456;10.850;2023-04-28T08:32:27;10.90;;;5.72;;
22191;SDS011;11261;52.456;10.850;2023-04-28T08:34:55;11.70;;;4.75;;
22191;SDS011;11261;52.456;10.850;2023-04-28T08:37:26;6.80;;;4.70;;
22191;SDS011;11261;52.456;10.850;2023-04-28T08:39:54;7.10;;;4.90;;
22191;SDS011;11261;52.456;10.850;2023-04-28T08:42:27;7.72;;;4.40;;
22191;SDS011;11261;52.456;10.850;2023-04-28T08:44:56;6.95;;;4.28;;
22191;SDS011;11261;52.456;10.850;2023-04-28T08:47:27;8.30;;;5.03;;
22191;SDS011;11261;52.456;10.850;2023-04-28T08:50:03;9.85;;;4.93;;
22191;SDS011;11261;52.456;10.850;2023-04-28T08:52:35;8.32;;;5.10;;
22191;SDS011;11261;52.456;10.850;2023-04-28T08:55:05;7.05;;;5.20;;
22191;SDS011;11261;52.456;10.850;2023-04-28T08:57:36;6.47;;;4.32;;
22191;SDS011;11261;52.456;10.850;2023-04-28T09:00:07;7.35;;;4.50;;
22191;SDS011;11261;52.456;10.850;2023-04-28T09:02:36;6.63;;;3.88;;
22191;SDS011;11261;52.456;10.850;2023-04-28T09:05:08;6.28;;;4.15;;
22191;SDS011;11261;52.456;10.850;2023-04-28T09:07:40;7.28;;;3.58;;
22191;SDS011;11261;52.456;10.850;2023-04-28T09:10:15;6.88;;;4.13;;
22191;SDS011;11261;52.456;10.850;2023-04-28T09:12:44;8.48;;;4.70;;
22191;SDS011;11261;52.456;10.850;2023-04-28T09:15:27;6.95;;;4.43;;
22191;SDS011;11261;52.456;10.850;2023-04-28T09:17:59;8.68;;;4.97;;
22191;SDS011;11261;52.456;10.850;2023-04-28T09:20:28;10.35;;;5.40;;
22191;SDS011;11261;52.456;10.850;2023-04-28T09:23:12;7.70;;;4.45;;
22191;SDS011;11261;52.456;10.850;2023-04-28T09:25:55;9.38;;;5.45;;
22191;SDS011;11261;52.456;10.850;2023-04-28T09:28:25;6.70;;;4.85;;
22191;SDS011;11261;52.456;10.850;2023-04-28T09:30:53;9.50;;;4.80;;
22191;SDS011;11261;52.456;10.850;2023-04-28T09:33:22;6.57;;;4.47;;
22191;SDS011;11261;52.456;10.850;2023-04-28T09:35:51;10.07;;;5.25;;
22191;SDS011;11261;52.456;10.850;2023-04-28T09:38:21;7.95;;;5.45;;
22191;SDS011;11261;52.456;10.850;2023-04-28T09:40:50;11.18;;;4.85;;
22191;SDS011;11261;52.456;10.850;2023-04-28T09:43:24;8.82;;;4.95;;
22191;SDS011;11261;52.456;10.850;2023-04-28T09:45:54;7.35;;;4.97;;
22191;SDS011;11261;52.456;10.850;2023-04-28T09:48:29;9.48;;;5.85;;
22191;SDS011;11261;52.456;10.850;2023-04-28T09:51:00;8.52;;;5.15;;
22191;SDS011;11261;52.456;10.850;2023-04-28T09:53:31;7.53;;;5.18;;
22191;SDS011;11261;52.456;10.850;2023-04-28T09:56:01;6.45;;;4.47;;
22191;SDS011;11261;52.456;10.850;2023-04-28T09:58:31;6.15;;;4.35;;
22191;SDS011;11261;52.456;10.850;2023-04-28T10:01:01;10.13;;;5.38;;
22191;SDS011;11261;52.456;10.850;2023-04-28T10:03:33;7.57;;;4.68;;
22191;SDS011;11261;52.456;10.850;2023-04-28T10:06:02;9.00;;;4.05;;
22191;SDS011;11261;52.456;10.850;2023-04-28T10:08:32;9.82;;;4.60;;
22191;SDS011;11261;52.456;10.850;2023-04-28T10:11:01;11.13;;;4.95;;
22191;SDS011;11261;52.456;10.850;2023-04-28T10:13:29;8.82;;;4.43;;
22191;SDS011;11261;52.456;10.850;2023-04-28T10:15:58;8.13;;;4.40;;
22191;SDS011;11261;52.456;10.850;2023-04-28T10:18:27;6.82;;;4.93;;
22191;SDS011;11261;52.456;10.850;2023-04-28T10:20:58;8.50;;;4.90;;
22191;SDS011;11261;52.456;10.850;2023-04-28T10:29:36;7.97;;;5.15;;
22191;SDS011;11261;52.456;10.850;2023-04-28T10:32:14;8.05;;;4.65;;
22191;SDS011;11261;52.456;10.850;2023-04-28T10:35:07;6.30;;;4.47;;
22191;SDS011;11261;52.456;10.850;2023-04-28T10:38:09;7.63;;;5.68;;
22191;SDS011;11261;52.456;10.850;2023-04-28T10:40:40;7.93;;;5.18;;
22191;SDS011;11261;52.456;10.850;2023-04-28T10:43:11;9.73;;;5.03;;
22191;SDS011;11261;52.456;10.850;2023-04-28T10:48:53;12.50;;;6.32;;
22191;SDS011;11261;52.456;10.850;2023-04-28T10:51:29;8.45;;;5.55;;
22191;SDS011;11261;52.456;10.850;2023-04-28T10:54:17;12.45;;;5.72;;
22191;SDS011;11261;52.456;10.850;2023-04-28T10:59:48;9.65;;;5.75;;
22191;SDS011;11261;52.456;10.850;2023-04-28T11:05:16;7.32;;;5.53;;
22191;SDS011;11261;52.456;10.850;2023-04-28T11:11:12;7.80;;;4.72;;
22191;SDS011;11261;52.456;10.850;2023-04-28T11:16:48;8.93;;;4.68;;
22191;SDS011;11261;52.456;10.850;2023-04-28T11:19:18;8.23;;;5.00;;
22191;SDS011;11261;52.456;10.850;2023-04-28T11:21:48;10.52;;;5.22;;
22191;SDS011;11261;52.456;10.850;2023-04-28T11:24:16;8.55;;;5.38;;
22191;SDS011;11261;52.456;10.850;2023-04-28T11:26:45;10.85;;;5.97;;
22191;SDS011;11261;52.456;10.850;2023-04-28T11:29:13;10.60;;;5.47;;
22191;SDS011;11261;52.456;10.850;2023-04-28T11:31:49;9.52;;;5.50;;
22191;SDS011;11261;52.456;10.850;2023-04-28T11:34:18;8.93;;;5.78;;
22191;SDS011;11261;52.456;10.850;2023-04-28T11:36:47;9.63;;;5.35;;
22191;SDS011;11261;52.456;10.850;2023-04-28T11:39:24;7.85;;;5.85;;
22191;SDS011;11261;52.456;10.850;2023-04-28T11:41:54;11.23;;;4.85;;
22191;SDS011;11261;52.456;10.850;2023-04-28T11:44:23;9.57;;;5.70;;
22191;SDS011;11261;52.456;10.850;2023-04-28T11:46:54;9.25;;;4.72;;
22191;SDS011;11261;52.456;10.850;2023-04-28T11:49:26;7.90;;;5.50;;
22191;SDS011;11261;52.456;10.850;2023-04-28T11:51:56;8.02;;;4.85;;
22191;SDS011;11261;52.456;10.850;2023-04-28T11:54:26;11.27;;;4.93;;
22191;SDS011;11261;52.456;10.850;2023-04-28T11:56:55;8.38;;;5.57;;
22191;SDS011;11261;52.456;10.850;2023-04-28T11:59:25;9.80;;;6.40;;
22191;SDS011;11261;52.456;10.850;2023-04-28T12:01:55;12.02;;;5.35;;
22191;SDS011;11261;52.456;10.850;2023-04-28T12:04:25;9.38;;;4.43;;
22191;SDS011;11261;52.456;10.850;2023-04-28T12:06:59;8.32;;;5.07;;
22191;SDS011;11261;52.456;10.850;2023-04-28T12:09:29;9.68;;;4.78;;
22191;SDS011;11261;52.456;10.850;2023-04-28T12:11:59;9.73;;;6.22;;
22191;SDS011;11261;52.456;10.850;2023-04-28T12:14:30;9.27;;;5.53;;
22191;SDS011;11261;52.456;10.850;2023-04-28T12:17:02;9.13;;;4.95;;
22191;SDS011;11261;52.456;10.850;2023-04-28T12:19:41;8.98;;;6.00;;
22191;SDS011;11261;52.456;10.850;2023-04-28T12:22:11;8.82;;;5.32;;
22191;SDS011;11261;52.456;10.850;2023-04-28T12:24:43;6.68;;;4.43;;
22191;SDS011;11261;52.456;10.850;2023-04-28T12:27:15;10.40;;;5.00;;
22191;SDS011;11261;52.456;10.850;2023-04-28T12:29:47;14.85;;;5.72;;
22191;SDS011;11261;52.456;10.850;2023-04-28T12:32:17;11.15;;;5.80;;
22191;SDS011;11261;52.456;10.850;2023-04-28T12:34:45;10.65;;;6.40;;
22191;SDS011;11261;52.456;10.850;2023-04-28T12:37:16;9.05;;;5.40;;
22191;SDS011;11261;52.456;10.850;2023-04-28T12:39:44;9.75;;;5.93;;
22191;SDS011;11261;52.456;10.850;2023-04-28T12:42:12;7.45;;;5.32;;
22191;SDS011;11261;52.456;10.850;2023-04-28T12:44:40;12.40;;;5.40;;
22191;SDS011;11261;52.456;10.850;2023-04-28T12:47:09;9.95;;;6.25;;
22191;SDS011;11261;52.456;10.850;2023-04-28T12:49:38;8.77;;;4.85;;
22191;SDS011;11261;52.456;10.850;2023-04-28T12:52:07;8.48;;;5.90;;
22191;SDS011;11261;52.456;10.850;2023-04-28T12:54:35;7.70;;;6.00;;
22191;SDS011;11261;52.456;10.850;2023-04-28T12:57:03;9.35;;;5.72;;
22191;SDS011;11261;52.456;10.850;2023-04-28T12:59:32;10.63;;;5.50;;
22191;SDS011;11261;52.456;10.850;2023-04-28T13:02:00;9.18;;;5.47;;
22191;SDS011;11261;52.456;10.850;2023-04-28T13:04:29;6.28;;;4.78;;
22191;SDS011;11261;52.456;10.850;2023-04-28T13:06:59;11.85;;;5.15;;
22191;SDS011;11261;52.456;10.850;2023-04-28T13:09:28;11.65;;;5.43;;
22191;SDS011;11261;52.456;10.850;2023-04-28T13:11:56;8.07;;;4.60;;
22191;SDS011;11261;52.456;10.850;2023-04-28T13:14:24;8.68;;;5.07;;
22191;SDS011;11261;52.456;10.850;2023-04-28T13:16:54;8.50;;;5.18;;
22191;SDS011;11261;52.456;10.850;2023-04-28T13:19:23;12.77;;;6.00;;
22191;SDS011;11261;52.456;10.850;2023-04-28T13:21:51;9.65;;;5.45;;
22191;SDS011;11261;52.456;10.850;2023-04-28T13:24:21;8.68;;;5.15;;
22191;SDS011;11261;52.456;10.850;2023-04-28T13:26:50;8.98;;;6.03;;
22191;SDS011;11261;52.456;10.850;2023-04-28T13:29:18;10.52;;;5.45;;
22191;SDS011;11261;52.456;10.850;2023-04-28T13:31:47;8.82;;;5.40;;
22191;SDS011;11261;52.456;10.850;2023-04-28T13:34:16;8.73;;;5.90;;
22191;SDS011;11261;52.456;10.850;2023-04-28T13:36:44;9.70;;;5.40;;
22191;SDS011;11261;52.456;10.850;2023-04-28T13:39:13;12.15;;;5.45;;
22191;SDS011;11261;52.456;10.850;2023-04-28T13:41:42;8.77;;;5.43;;
22191;SDS011;11261;52.456;10.850;2023-04-28T13:44:11;9.85;;;5.35;;
22191;SDS011;11261;52.456;10.850;2023-04-28T13:46:39;7.38;;;5.05;;
22191;SDS011;11261;52.456;10.850;2023-04-28T13:49:08;7.07;;;4.95;;
22191;SDS011;11261;52.456;10.850;2023-04-28T13:51:36;8.75;;;5.65;;
22191;SDS011;11261;52.456;10.850;2023-04-28T13:54:04;10.02;;;5.78;;
22191;SDS011;11261;52.456;10.850;2023-04-28T13:56:35;12.52;;;5.70;;
22191;SDS011;11261;52.456;10.850;2023-04-28T13:59:05;9.90;;;6.57;;
22191;SDS011;11261;52.456;10.850;2023-04-28T14:01:33;7.38;;;5.80;;
22191;SDS011;11261;52.456;10.850;2023-04-28T14:04:01;8.05;;;4.70;;
22191;SDS011;11261;52.456;10.850;2023-04-28T14:06:30;10.02;;;6.07;;
22191;SDS011;11261;52.456;10.850;2023-04-28T14:09:00;9.23;;;5.28;;
22191;SDS011;11261;52.456;10.850;2023-04-28T14:11:28;9.15;;;5.57;;
22191;SDS011;11261;52.456;10.850;2023-04-28T14:13:57;11.18;;;5.57;;
22191;SDS011;11261;52.456;10.850;2023-04-28T14:16:26;8.57;;;5.45;;
22191;SDS011;11261;52.456;10.850;2023-04-28T14:18:56;13.45;;;7.07;;
22191;SDS011;11261;52.456;10.850;2023-04-28T14:21:25;9.60;;;5.68;;
22191;SDS011;11261;52.456;10.850;2023-04-28T14:23:54;10.80;;;6.00;;
22191;SDS011;11261;52.456;10.850;2023-04-28T14:26:22;13.07;;;5.60;;
22191;SDS011;11261;52.456;10.850;2023-04-28T14:28:50;7.78;;;5.57;;
22191;SDS011;11261;52.456;10.850;2023-04-28T14:31:18;10.13;;;6.07;;
22191;SDS011;11261;52.456;10.850;2023-04-28T14:33:48;11.52;;;6.22;;
22191;SDS011;11261;52.456;10.850;2023-04-28T14:36:16;8.98;;;5.25;;
22191;SDS011;11261;52.456;10.850;2023-04-28T14:38:45;10.70;;;6.10;;
22191;SDS011;11261;52.456;10.850;2023-04-28T14:41:13;7.38;;;5.78;;
22191;SDS011;11261;52.456;10.850;2023-04-28T14:43:41;11.18;;;5.80;;
22191;SDS011;11261;52.456;10.850;2023-04-28T14:46:10;9.60;;;6.15;;
22191;SDS011;11261;52.456;10.850;2023-04-28T14:48:38;12.63;;;6.93;;
22191;SDS011;11261;52.456;10.850;2023-04-28T14:51:08;11.40;;;5.93;;
22191;SDS011;11261;52.456;10.850;2023-04-28T14:53:37;7.85;;;6.18;;
22191;SDS011;11261;52.456;10.850;2023-04-28T14:56:05;9.63;;;6.20;;
22191;SDS011;11261;52.456;10.850;2023-04-28T14:58:44;8.57;;;5.90;;
22191;SDS011;11261;52.456;10.850;2023-04-28T15:01:12;10.50;;;7.07;;
22191;SDS011;11261;52.456;10.850;2023-04-28T15:03:41;9.20;;;5.95;;
22191;SDS011;11261;52.456;10.850;2023-04-28T15:06:11;10.63;;;6.57;;
22191;SDS011;11261;52.456;10.850;2023-04-28T15:08:39;11.45;;;7.05;;